Trips / Vienna

trip
Vienna
5/8 May 2016
EDLP; Paderborn-Lippstadt LKCS; Ceske Budejovic LOAV; Voslau EDQM; Hof-Plauen



From Paderborn-Lippstadt to České Budějovice

Fueling before departure
Fueling before departure
Departure from Paderborn-Lippstadt
Departure from Paderborn-Lippstadt
Approaching Ceske Budejovic from the west
Approaching České Budějovice from the west
Fueling at Ceske Budejovic
Fueling at České Budějovice



From České Budějovice to Vöslau

Marcel, Angela, Veleda and Rene
Marcel, Angela, Veleda and René
Donau (Danube)
Donau (Danube)
Final runway 31 Voslau airport
Final runway 31 Vöslau airport
Rene at Voslau airport
René at Vöslau airport



Visiting Vienna

Vienna sights(1)

Vienna sights(2)

Vienna sights(3)



From Vöslau to Hof-Plauen

Veleda, Angela and Marcel at Voslau
Veleda, Angela and Marcel at Vöslau airport
Passing Weitra
Passing Weitra
Final runway 08 Hof-Plauen airport
Final runway 08 Hof-Plauen airport
Marcel and Rene at the fuel station
Marcel and René at the fuel station



From Hof-Plauen to Paderborn-Lippstadt

METAR EDLP 081420Z 12015G27KT CAVOK 23/06 Q1013=
METAR EDLP 081350Z 11019KT CAVOK 22/05 Q1013=

Taxi-out to runway 08 Hof-Plauen airport
Taxi-out to runway 08 Hof-Plauen airport
Departure from Hof-Plauen
Departure from Hof-Plauen
Ground speed 187 kts
Ground speed 187 kts
Angela, Veleda, Marcel and Rene
Angela, Veleda, Marcel and René


Other Trips | Top